sensor_id;sensor_type;location;lat;lon;timestamp;temperature;humidity
13328;DHT22;6733;51.044;3.746;2023-06-24T00:01:52;18.90;99.90
13328;DHT22;6733;51.044;3.746;2023-06-24T00:04:18;18.90;99.90
13328;DHT22;6733;51.044;3.746;2023-06-24T00:06:46;18.90;99.90
13328;DHT22;6733;51.044;3.746;2023-06-24T00:09:12;18.90;99.90
13328;DHT22;6733;51.044;3.746;2023-06-24T00:11:39;18.80;99.90
13328;DHT22;6733;51.044;3.746;2023-06-24T00:14:05;18.80;99.90
13328;DHT22;6733;51.044;3.746;2023-06-24T00:16:32;18.80;99.90
13328;DHT22;6733;51.044;3.746;2023-06-24T00:18:59;18.80;99.90
13328;DHT22;6733;51.044;3.746;2023-06-24T00:21:26;18.80;99.90
13328;DHT22;6733;51.044;3.746;2023-06-24T00:23:59;18.80;99.90
13328;DHT22;6733;51.044;3.746;2023-06-24T00:26:28;18.70;99.90
13328;DHT22;6733;51.044;3.746;2023-06-24T00:28:54;18.70;99.90
13328;DHT22;6733;51.044;3.746;2023-06-24T00:31:21;18.70;99.90
13328;DHT22;6733;51.044;3.746;2023-06-24T00:33:47;18.70;99.90
13328;DHT22;6733;51.044;3.746;2023-06-24T00:36:15;18.70;99.90
13328;DHT22;6733;51.044;3.746;2023-06-24T00:38:41;18.60;99.90
13328;DHT22;6733;51.044;3.746;2023-06-24T00:41:08;18.60;99.90
13328;DHT22;6733;51.044;3.746;2023-06-24T00:43:34;18.60;99.90
13328;DHT22;6733;51.044;3.746;2023-06-24T00:46:01;18.60;99.90
13328;DHT22;6733;51.044;3.746;2023-06-24T00:48:27;18.50;99.90
13328;DHT22;6733;51.044;3.746;2023-06-24T00:50:53;18.50;99.90
13328;DHT22;6733;51.044;3.746;2023-06-24T00:53:20;18.50;99.90
13328;DHT22;6733;51.044;3.746;2023-06-24T00:55:51;18.50;99.90
13328;DHT22;6733;51.044;3.746;2023-06-24T00:58:19;18.50;99.90
13328;DHT22;6733;51.044;3.746;2023-06-24T01:00:47;18.50;99.90
13328;DHT22;6733;51.044;3.746;2023-06-24T01:03:24;18.40;99.90
13328;DHT22;6733;51.044;3.746;2023-06-24T01:05:51;18.40;99.90
13328;DHT22;6733;51.044;3.746;2023-06-24T01:08:18;18.40;99.90
13328;DHT22;6733;51.044;3.746;2023-06-24T01:10:50;18.40;99.90
13328;DHT22;6733;51.044;3.746;2023-06-24T01:13:16;18.40;99.90
13328;DHT22;6733;51.044;3.746;2023-06-24T01:15:43;18.40;99.90
13328;DHT22;6733;51.044;3.746;2023-06-24T01:18:21;18.30;99.90
13328;DHT22;6733;51.044;3.746;2023-06-24T01:21:03;18.30;99.90
13328;DHT22;6733;51.044;3.746;2023-06-24T01:23:42;18.30;99.90
13328;DHT22;6733;51.044;3.746;2023-06-24T01:26:20;18.30;99.90
13328;DHT22;6733;51.044;3.746;2023-06-24T01:37:24;18.20;99.90
13328;DHT22;6733;51.044;3.746;2023-06-24T01:40:20;18.20;99.90
13328;DHT22;6733;51.044;3.746;2023-06-24T01:42:49;18.10;99.90
13328;DHT22;6733;51.044;3.746;2023-06-24T01:45:25;18.20;99.90
13328;DHT22;6733;51.044;3.746;2023-06-24T01:48:14;18.10;99.90
13328;DHT22;6733;51.044;3.746;2023-06-24T01:50:52;18.10;99.90
13328;DHT22;6733;51.044;3.746;2023-06-24T01:53:21;18.10;99.90
13328;DHT22;6733;51.044;3.746;2023-06-24T01:55:48;18.10;99.90
13328;DHT22;6733;51.044;3.746;2023-06-24T01:58:17;18.10;99.90
13328;DHT22;6733;51.044;3.746;2023-06-24T02:00:45;18.10;99.90
13328;DHT22;6733;51.044;3.746;2023-06-24T02:03:12;18.10;99.90
13328;DHT22;6733;51.044;3.746;2023-06-24T02:05:40;18.10;99.90
13328;DHT22;6733;51.044;3.746;2023-06-24T02:08:10;18.10;99.90
13328;DHT22;6733;51.044;3.746;2023-06-24T02:10:38;18.00;99.90
13328;DHT22;6733;51.044;3.746;2023-06-24T02:13:05;18.00;99.90
13328;DHT22;6733;51.044;3.746;2023-06-24T02:15:32;18.00;99.90
13328;DHT22;6733;51.044;3.746;2023-06-24T02:18:01;18.00;99.90
13328;DHT22;6733;51.044;3.746;2023-06-24T02:20:29;18.00;99.90
13328;DHT22;6733;51.044;3.746;2023-06-24T02:22:57;17.90;99.90
13328;DHT22;6733;51.044;3.746;2023-06-24T02:25:25;17.90;99.90
13328;DHT22;6733;51.044;3.746;2023-06-24T02:27:53;17.90;99.90
13328;DHT22;6733;51.044;3.746;2023-06-24T02:30:21;17.90;99.90
13328;DHT22;6733;51.044;3.746;2023-06-24T02:32:47;17.80;99.90
13328;DHT22;6733;51.044;3.746;2023-06-24T02:35:13;17.80;99.90
13328;DHT22;6733;51.044;3.746;2023-06-24T02:37:40;17.80;99.90
13328;DHT22;6733;51.044;3.746;2023-06-24T02:40:31;17.80;99.90
13328;DHT22;6733;51.044;3.746;2023-06-24T02:43:23;17.70;99.90
13328;DHT22;6733;51.044;3.746;2023-06-24T02:46:15;17.70;99.90
13328;DHT22;6733;51.044;3.746;2023-06-24T02:49:08;17.70;99.90
13328;DHT22;6733;51.044;3.746;2023-06-24T02:52:00;17.70;99.90
13328;DHT22;6733;51.044;3.746;2023-06-24T02:54:51;17.60;99.90
13328;DHT22;6733;51.044;3.746;2023-06-24T02:57:18;17.60;99.90
13328;DHT22;6733;51.044;3.746;2023-06-24T02:59:46;17.60;99.90
13328;DHT22;6733;51.044;3.746;2023-06-24T03:02:15;17.50;99.90
13328;DHT22;6733;51.044;3.746;2023-06-24T03:04:44;17.50;99.90
13328;DHT22;6733;51.044;3.746;2023-06-24T03:07:11;17.50;99.90
13328;DHT22;6733;51.044;3.746;2023-06-24T03:09:40;17.50;99.90
13328;DHT22;6733;51.044;3.746;2023-06-24T03:12:06;17.50;99.90
13328;DHT22;6733;51.044;3.746;2023-06-24T03:14:33;17.50;99.90
13328;DHT22;6733;51.044;3.746;2023-06-24T03:16:59;17.40;99.90
13328;DHT22;6733;51.044;3.746;2023-06-24T03:19:25;17.40;99.90
13328;DHT22;6733;51.044;3.746;2023-06-24T03:21:51;17.40;99.90
13328;DHT22;6733;51.044;3.746;2023-06-24T03:24:18;17.40;99.90
13328;DHT22;6733;51.044;3.746;2023-06-24T03:26:44;17.40;99.90
13328;DHT22;6733;51.044;3.746;2023-06-24T03:29:10;17.40;99.90
13328;DHT22;6733;51.044;3.746;2023-06-24T03:31:37;17.30;99.90
13328;DHT22;6733;51.044;3.746;2023-06-24T03:34:04;17.30;99.90
13328;DHT22;6733;51.044;3.746;2023-06-24T03:36:30;17.30;99.90
13328;DHT22;6733;51.044;3.746;2023-06-24T03:38:56;17.30;99.90
13328;DHT22;6733;51.044;3.746;2023-06-24T03:41:22;17.30;99.90
13328;DHT22;6733;51.044;3.746;2023-06-24T03:43:49;17.30;99.90
13328;DHT22;6733;51.044;3.746;2023-06-24T03:46:15;17.20;99.90
13328;DHT22;6733;51.044;3.746;2023-06-24T03:48:42;17.20;99.90
13328;DHT22;6733;51.044;3.746;2023-06-24T03:51:09;17.20;99.90
13328;DHT22;6733;51.044;3.746;2023-06-24T03:53:35;17.20;99.90
13328;DHT22;6733;51.044;3.746;2023-06-24T03:56:01;17.30;99.90
13328;DHT22;6733;51.044;3.746;2023-06-24T03:58:27;17.30;99.90
13328;DHT22;6733;51.044;3.746;2023-06-24T04:00:53;17.20;99.90
13328;DHT22;6733;51.044;3.746;2023-06-24T04:03:23;17.30;99.90
13328;DHT22;6733;51.044;3.746;2023-06-24T04:05:54;17.30;99.90
13328;DHT22;6733;51.044;3.746;2023-06-24T04:08:20;17.30;99.90
13328;DHT22;6733;51.044;3.746;2023-06-24T04:10:47;17.30;99.90
13328;DHT22;6733;51.044;3.746;2023-06-24T04:13:13;17.30;99.90
13328;DHT22;6733;51.044;3.746;2023-06-24T04:15:39;17.40;99.90
13328;DHT22;6733;51.044;3.746;2023-06-24T04:18:05;17.40;99.90
13328;DHT22;6733;51.044;3.746;2023-06-24T04:20:32;17.40;99.90
13328;DHT22;6733;51.044;3.746;2023-06-24T04:22:58;17.50;99.90
13328;DHT22;6733;51.044;3.746;2023-06-24T04:25:26;17.50;99.90
13328;DHT22;6733;51.044;3.746;2023-06-24T04:27:52;17.50;99.90
13328;DHT22;6733;51.044;3.746;2023-06-24T04:30:19;17.50;99.90
13328;DHT22;6733;51.044;3.746;2023-06-24T04:32:45;17.60;99.90
13328;DHT22;6733;51.044;3.746;2023-06-24T04:35:11;17.60;99.90
13328;DHT22;6733;51.044;3.746;2023-06-24T04:37:37;17.60;99.90
13328;DHT22;6733;51.044;3.746;2023-06-24T04:40:07;17.70;99.90
13328;DHT22;6733;51.044;3.746;2023-06-24T04:42:33;17.70;99.90
13328;DHT22;6733;51.044;3.746;2023-06-24T04:45:00;17.70;99.90
13328;DHT22;6733;51.044;3.746;2023-06-24T04:47:26;17.80;99.90
13328;DHT22;6733;51.044;3.746;2023-06-24T04:49:53;17.80;99.90
13328;DHT22;6733;51.044;3.746;2023-06-24T04:52:19;17.80;99.90
13328;DHT22;6733;51.044;3.746;2023-06-24T04:54:45;17.90;99.90
13328;DHT22;6733;51.044;3.746;2023-06-24T04:57:24;17.90;99.90
13328;DHT22;6733;51.044;3.746;2023-06-24T04:59:51;18.00;99.90
13328;DHT22;6733;51.044;3.746;2023-06-24T05:02:17;18.00;99.90
13328;DHT22;6733;51.044;3.746;2023-06-24T05:04:43;18.00;99.90
13328;DHT22;6733;51.044;3.746;2023-06-24T05:07:09;18.00;99.90
13328;DHT22;6733;51.044;3.746;2023-06-24T05:09:36;18.10;99.90
13328;DHT22;6733;51.044;3.746;2023-06-24T05:12:05;18.20;99.90
13328;DHT22;6733;51.044;3.746;2023-06-24T05:14:34;18.20;99.90
13328;DHT22;6733;51.044;3.746;2023-06-24T05:17:00;18.30;99.90
13328;DHT22;6733;51.044;3.746;2023-06-24T05:19:27;18.40;99.90
13328;DHT22;6733;51.044;3.746;2023-06-24T05:21:53;18.50;99.90
13328;DHT22;6733;51.044;3.746;2023-06-24T05:24:22;18.50;99.90
13328;DHT22;6733;51.044;3.746;2023-06-24T05:26:50;18.60;99.90
13328;DHT22;6733;51.044;3.746;2023-06-24T05:29:17;18.60;99.90
13328;DHT22;6733;51.044;3.746;2023-06-24T05:31:46;18.70;99.90
13328;DHT22;6733;51.044;3.746;2023-06-24T05:34:13;18.70;99.90
13328;DHT22;6733;51.044;3.746;2023-06-24T05:36:39;18.80;99.90
13328;DHT22;6733;51.044;3.746;2023-06-24T05:39:05;18.90;99.90
13328;DHT22;6733;51.044;3.746;2023-06-24T05:41:34;18.90;99.90
13328;DHT22;6733;51.044;3.746;2023-06-24T05:44:07;19.00;99.90
13328;DHT22;6733;51.044;3.746;2023-06-24T05:46:36;19.10;99.90
13328;DHT22;6733;51.044;3.746;2023-06-24T05:49:03;19.10;99.90
13328;DHT22;6733;51.044;3.746;2023-06-24T05:51:29;19.20;99.90
13328;DHT22;6733;51.044;3.746;2023-06-24T05:53:56;19.30;99.90
13328;DHT22;6733;51.044;3.746;2023-06-24T05:56:22;19.40;99.90
13328;DHT22;6733;51.044;3.746;2023-06-24T05:58:49;19.40;99.90
13328;DHT22;6733;51.044;3.746;2023-06-24T06:01:15;19.40;99.90
13328;DHT22;6733;51.044;3.746;2023-06-24T06:03:42;19.50;99.90
13328;DHT22;6733;51.044;3.746;2023-06-24T06:06:08;19.70;99.90
13328;DHT22;6733;51.044;3.746;2023-06-24T06:08:35;19.80;99.90
13328;DHT22;6733;51.044;3.746;2023-06-24T06:11:01;19.80;99.90
13328;DHT22;6733;51.044;3.746;2023-06-24T06:13:29;19.80;99.90
13328;DHT22;6733;51.044;3.746;2023-06-24T06:15:56;20.00;99.90
13328;DHT22;6733;51.044;3.746;2023-06-24T06:18:25;20.20;99.90
13328;DHT22;6733;51.044;3.746;2023-06-24T06:20:51;20.20;99.90
13328;DHT22;6733;51.044;3.746;2023-06-24T06:23:18;20.30;99.90
13328;DHT22;6733;51.044;3.746;2023-06-24T06:25:44;20.50;99.90
13328;DHT22;6733;51.044;3.746;2023-06-24T06:28:11;20.60;99.90
13328;DHT22;6733;51.044;3.746;2023-06-24T06:30:38;20.80;99.90
13328;DHT22;6733;51.044;3.746;2023-06-24T06:33:04;21.00;99.90
13328;DHT22;6733;51.044;3.746;2023-06-24T06:35:31;21.00;99.90
13328;DHT22;6733;51.044;3.746;2023-06-24T06:37:57;21.10;99.90
13328;DHT22;6733;51.044;3.746;2023-06-24T06:40:24;21.30;99.90
13328;DHT22;6733;51.044;3.746;2023-06-24T06:42:50;21.50;99.90
13328;DHT22;6733;51.044;3.746;2023-06-24T06:45:16;21.60;99.90
13328;DHT22;6733;51.044;3.746;2023-06-24T06:47:42;21.60;99.90
13328;DHT22;6733;51.044;3.746;2023-06-24T06:50:09;21.60;99.90
13328;DHT22;6733;51.044;3.746;2023-06-24T06:52:35;21.70;99.90
13328;DHT22;6733;51.044;3.746;2023-06-24T06:55:02;21.90;99.90
13328;DHT22;6733;51.044;3.746;2023-06-24T06:57:29;22.20;99.90
13328;DHT22;6733;51.044;3.746;2023-06-24T06:59:56;22.20;99.90
13328;DHT22;6733;51.044;3.746;2023-06-24T07:02:22;22.30;99.90
13328;DHT22;6733;51.044;3.746;2023-06-24T07:04:49;22.60;99.90
13328;DHT22;6733;51.044;3.746;2023-06-24T07:07:17;22.80;99.90
13328;DHT22;6733;51.044;3.746;2023-06-24T07:09:43;23.00;99.90
13328;DHT22;6733;51.044;3.746;2023-06-24T07:12:09;23.10;99.90
13328;DHT22;6733;51.044;3.746;2023-06-24T07:14:36;23.30;99.90
13328;DHT22;6733;51.044;3.746;2023-06-24T07:17:02;23.50;99.90
13328;DHT22;6733;51.044;3.746;2023-06-24T07:19:29;23.80;99.90
13328;DHT22;6733;51.044;3.746;2023-06-24T07:21:55;23.90;99.90
13328;DHT22;6733;51.044;3.746;2023-06-24T07:24:21;24.20;99.90
13328;DHT22;6733;51.044;3.746;2023-06-24T07:26:47;24.20;99.90
13328;DHT22;6733;51.044;3.746;2023-06-24T07:29:14;24.30;99.90
13328;DHT22;6733;51.044;3.746;2023-06-24T07:31:40;24.50;99.90
13328;DHT22;6733;51.044;3.746;2023-06-24T07:34:06;24.50;99.90
13328;DHT22;6733;51.044;3.746;2023-06-24T07:36:33;24.80;99.90
13328;DHT22;6733;51.044;3.746;2023-06-24T07:38:59;25.10;99.90
13328;DHT22;6733;51.044;3.746;2023-06-24T07:41:26;25.30;99.90
13328;DHT22;6733;51.044;3.746;2023-06-24T07:43:52;25.50;99.90
13328;DHT22;6733;51.044;3.746;2023-06-24T07:46:18;25.70;99.90
13328;DHT22;6733;51.044;3.746;2023-06-24T07:48:45;25.90;99.90
13328;DHT22;6733;51.044;3.746;2023-06-24T07:51:11;26.10;99.90
13328;DHT22;6733;51.044;3.746;2023-06-24T07:53:38;26.20;99.90
13328;DHT22;6733;51.044;3.746;2023-06-24T07:56:04;26.30;99.90
13328;DHT22;6733;51.044;3.746;2023-06-24T07:58:31;26.40;99.90
13328;DHT22;6733;51.044;3.746;2023-06-24T08:00:57;26.60;99.90
13328;DHT22;6733;51.044;3.746;2023-06-24T08:03:23;26.60;99.90
13328;DHT22;6733;51.044;3.746;2023-06-24T08:05:50;26.70;99.90
13328;DHT22;6733;51.044;3.746;2023-06-24T08:08:16;26.80;99.90
13328;DHT22;6733;51.044;3.746;2023-06-24T08:10:45;26.70;99.90
13328;DHT22;6733;51.044;3.746;2023-06-24T08:13:12;27.00;99.90
13328;DHT22;6733;51.044;3.746;2023-06-24T08:15:38;27.20;99.90
13328;DHT22;6733;51.044;3.746;2023-06-24T08:18:04;27.40;99.90
13328;DHT22;6733;51.044;3.746;2023-06-24T08:20:30;27.50;99.90
13328;DHT22;6733;51.044;3.746;2023-06-24T08:22:56;27.70;99.90
13328;DHT22;6733;51.044;3.746;2023-06-24T08:25:23;27.70;99.90
13328;DHT22;6733;51.044;3.746;2023-06-24T08:27:49;27.80;99.90
13328;DHT22;6733;51.044;3.746;2023-06-24T08:30:15;27.80;99.90
13328;DHT22;6733;51.044;3.746;2023-06-24T08:32:42;28.10;99.90
13328;DHT22;6733;51.044;3.746;2023-06-24T08:35:08;28.10;99.90
13328;DHT22;6733;51.044;3.746;2023-06-24T08:37:40;28.20;99.90
13328;DHT22;6733;51.044;3.746;2023-06-24T08:40:06;28.30;99.90
13328;DHT22;6733;51.044;3.746;2023-06-24T08:42:32;28.40;99.90
13328;DHT22;6733;51.044;3.746;2023-06-24T08:44:59;28.60;99.90
13328;DHT22;6733;51.044;3.746;2023-06-24T08:47:25;28.80;99.90
13328;DHT22;6733;51.044;3.746;2023-06-24T08:50:01;28.80;99.90
13328;DHT22;6733;51.044;3.746;2023-06-24T08:52:35;29.00;99.90
13328;DHT22;6733;51.044;3.746;2023-06-24T08:55:02;28.90;99.20
13328;DHT22;6733;51.044;3.746;2023-06-24T08:57:30;28.70;99.40
13328;DHT22;6733;51.044;3.746;2023-06-24T08:59:56;28.90;99.80
13328;DHT22;6733;51.044;3.746;2023-06-24T09:02:23;29.00;99.90
13328;DHT22;6733;51.044;3.746;2023-06-24T09:04:51;29.30;98.90
13328;DHT22;6733;51.044;3.746;2023-06-24T09:07:28;29.10;98.50
13328;DHT22;6733;51.044;3.746;2023-06-24T09:09:54;29.20;98.40
13328;DHT22;6733;51.044;3.746;2023-06-24T09:12:20;29.30;97.40
13328;DHT22;6733;51.044;3.746;2023-06-24T09:14:50;29.50;97.80
13328;DHT22;6733;51.044;3.746;2023-06-24T09:17:17;29.50;97.40
13328;DHT22;6733;51.044;3.746;2023-06-24T09:19:43;29.60;97.20
13328;DHT22;6733;51.044;3.746;2023-06-24T09:22:10;29.70;96.70
13328;DHT22;6733;51.044;3.746;2023-06-24T09:24:45;29.50;97.00
13328;DHT22;6733;51.044;3.746;2023-06-24T09:27:15;29.60;97.30
13328;DHT22;6733;51.044;3.746;2023-06-24T09:29:43;29.80;96.90
13328;DHT22;6733;51.044;3.746;2023-06-24T09:32:09;29.90;96.90
13328;DHT22;6733;51.044;3.746;2023-06-24T09:34:36;29.80;97.00
13328;DHT22;6733;51.044;3.746;2023-06-24T09:37:02;30.00;96.70
13328;DHT22;6733;51.044;3.746;2023-06-24T09:39:38;30.00;95.70
13328;DHT22;6733;51.044;3.746;2023-06-24T09:42:06;29.90;95.80
13328;DHT22;6733;51.044;3.746;2023-06-24T09:44:35;29.90;96.00
13328;DHT22;6733;51.044;3.746;2023-06-24T09:47:01;29.90;95.90
13328;DHT22;6733;51.044;3.746;2023-06-24T09:49:29;29.90;96.00
13328;DHT22;6733;51.044;3.746;2023-06-24T09:51:57;29.90;94.80
13328;DHT22;6733;51.044;3.746;2023-06-24T09:54:26;30.00;95.40
13328;DHT22;6733;51.044;3.746;2023-06-24T09:56:54;30.00;95.30
13328;DHT22;6733;51.044;3.746;2023-06-24T09:59:23;30.10;95.10
13328;DHT22;6733;51.044;3.746;2023-06-24T10:01:53;30.10;95.00
13328;DHT22;6733;51.044;3.746;2023-06-24T10:04:20;30.10;94.90
13328;DHT22;6733;51.044;3.746;2023-06-24T10:06:49;29.90;94.90
13328;DHT22;6733;51.044;3.746;2023-06-24T10:09:16;30.10;94.80
13328;DHT22;6733;51.044;3.746;2023-06-24T10:11:47;30.10;94.40
13328;DHT22;6733;51.044;3.746;2023-06-24T10:14:16;30.40;94.30
13328;DHT22;6733;51.044;3.746;2023-06-24T10:16:44;30.40;94.00
13328;DHT22;6733;51.044;3.746;2023-06-24T10:19:10;30.50;93.90
13328;DHT22;6733;51.044;3.746;2023-06-24T10:21:54;30.50;92.60
13328;DHT22;6733;51.044;3.746;2023-06-24T10:24:30;30.40;92.00
13328;DHT22;6733;51.044;3.746;2023-06-24T10:27:06;30.50;91.80
13328;DHT22;6733;51.044;3.746;2023-06-24T10:32:04;30.20;92.40
13328;DHT22;6733;51.044;3.746;2023-06-24T10:34:42;30.40;92.30
13328;DHT22;6733;51.044;3.746;2023-06-24T10:37:10;30.50;89.00
13328;DHT22;6733;51.044;3.746;2023-06-24T10:42:44;29.80;91.90
13328;DHT22;6733;51.044;3.746;2023-06-24T10:47:48;30.10;90.40
13328;DHT22;6733;51.044;3.746;2023-06-24T10:50:17;30.30;89.10
13328;DHT22;6733;51.044;3.746;2023-06-24T10:52:45;30.20;87.60
13328;DHT22;6733;51.044;3.746;2023-06-24T10:55:16;30.20;90.20
13328;DHT22;6733;51.044;3.746;2023-06-24T10:57:42;29.70;87.90
13328;DHT22;6733;51.044;3.746;2023-06-24T11:00:10;29.90;87.60
13328;DHT22;6733;51.044;3.746;2023-06-24T11:02:36;30.00;88.60
13328;DHT22;6733;51.044;3.746;2023-06-24T11:05:03;29.80;86.50
13328;DHT22;6733;51.044;3.746;2023-06-24T11:07:34;29.90;86.70
13328;DHT22;6733;51.044;3.746;2023-06-24T11:10:06;30.10;85.50
13328;DHT22;6733;51.044;3.746;2023-06-24T11:12:34;30.30;88.20
13328;DHT22;6733;51.044;3.746;2023-06-24T11:15:05;29.80;88.50
13328;DHT22;6733;51.044;3.746;2023-06-24T11:17:33;29.80;90.10
13328;DHT22;6733;51.044;3.746;2023-06-24T11:20:00;29.50;90.10
13328;DHT22;6733;51.044;3.746;2023-06-24T11:22:27;29.80;90.20
13328;DHT22;6733;51.044;3.746;2023-06-24T11:24:54;30.10;88.40
13328;DHT22;6733;51.044;3.746;2023-06-24T11:27:28;30.30;88.50
13328;DHT22;6733;51.044;3.746;2023-06-24T11:29:57;30.20;89.20
13328;DHT22;6733;51.044;3.746;2023-06-24T11:32:39;30.40;88.60
13328;DHT22;6733;51.044;3.746;2023-06-24T11:35:07;30.20;88.50
13328;DHT22;6733;51.044;3.746;2023-06-24T11:37:33;30.40;88.80
13328;DHT22;6733;51.044;3.746;2023-06-24T11:40:04;30.40;88.80
13328;DHT22;6733;51.044;3.746;2023-06-24T11:42:31;30.00;89.10
13328;DHT22;6733;51.044;3.746;2023-06-24T11:45:03;30.20;88.80
13328;DHT22;6733;51.044;3.746;2023-06-24T11:47:32;30.40;85.30
13328;DHT22;6733;51.044;3.746;2023-06-24T11:50:00;30.30;82.40
13328;DHT22;6733;51.044;3.746;2023-06-24T11:52:46;30.10;84.40
13328;DHT22;6733;51.044;3.746;2023-06-24T11:55:25;29.90;87.50
13328;DHT22;6733;51.044;3.746;2023-06-24T11:57:55;29.80;87.70
13328;DHT22;6733;51.044;3.746;2023-06-24T12:00:22;30.00;87.10
13328;DHT22;6733;51.044;3.746;2023-06-24T12:02:50;30.00;88.50
13328;DHT22;6733;51.044;3.746;2023-06-24T12:05:22;30.40;86.90
13328;DHT22;6733;51.044;3.746;2023-06-24T12:07:59;30.40;83.00
13328;DHT22;6733;51.044;3.746;2023-06-24T12:10:27;30.10;81.80
13328;DHT22;6733;51.044;3.746;2023-06-24T12:12:53;30.20;82.50
13328;DHT22;6733;51.044;3.746;2023-06-24T12:15:19;30.40;82.80
13328;DHT22;6733;51.044;3.746;2023-06-24T12:17:46;30.60;84.50
13328;DHT22;6733;51.044;3.746;2023-06-24T12:20:12;30.70;86.00
13328;DHT22;6733;51.044;3.746;2023-06-24T12:22:40;30.50;83.20
13328;DHT22;6733;51.044;3.746;2023-06-24T12:25:07;29.90;83.10
13328;DHT22;6733;51.044;3.746;2023-06-24T12:27:33;29.90;78.60
13328;DHT22;6733;51.044;3.746;2023-06-24T12:30:00;29.70;73.50
13328;DHT22;6733;51.044;3.746;2023-06-24T12:32:26;29.70;77.10
13328;DHT22;6733;51.044;3.746;2023-06-24T12:34:53;29.80;78.90
13328;DHT22;6733;51.044;3.746;2023-06-24T12:37:19;29.90;78.20
13328;DHT22;6733;51.044;3.746;2023-06-24T12:39:45;29.30;76.20
13328;DHT22;6733;51.044;3.746;2023-06-24T12:42:12;29.30;77.20
13328;DHT22;6733;51.044;3.746;2023-06-24T12:44:38;29.40;79.70
13328;DHT22;6733;51.044;3.746;2023-06-24T12:47:04;29.60;83.40
13328;DHT22;6733;51.044;3.746;2023-06-24T12:49:30;29.90;84.00
13328;DHT22;6733;51.044;3.746;2023-06-24T12:51:56;29.90;83.70
13328;DHT22;6733;51.044;3.746;2023-06-24T12:54:22;29.90;84.40
13328;DHT22;6733;51.044;3.746;2023-06-24T12:56:49;30.00;83.70
13328;DHT22;6733;51.044;3.746;2023-06-24T12:59:15;30.10;82.20
13328;DHT22;6733;51.044;3.746;2023-06-24T13:01:41;30.00;83.60
13328;DHT22;6733;51.044;3.746;2023-06-24T13:04:11;29.90;84.20
13328;DHT22;6733;51.044;3.746;2023-06-24T13:06:37;29.90;84.30
13328;DHT22;6733;51.044;3.746;2023-06-24T13:09:03;29.70;85.60
13328;DHT22;6733;51.044;3.746;2023-06-24T13:11:29;29.90;85.00
13328;DHT22;6733;51.044;3.746;2023-06-24T13:13:55;30.00;84.40
13328;DHT22;6733;51.044;3.746;2023-06-24T13:16:21;30.20;83.80
13328;DHT22;6733;51.044;3.746;2023-06-24T13:18:47;30.00;81.20
13328;DHT22;6733;51.044;3.746;2023-06-24T13:21:13;30.10;81.20
13328;DHT22;6733;51.044;3.746;2023-06-24T13:23:40;30.40;81.40
13328;DHT22;6733;51.044;3.746;2023-06-24T13:26:06;30.60;81.30
13328;DHT22;6733;51.044;3.746;2023-06-24T13:28:35;30.70;81.30
13328;DHT22;6733;51.044;3.746;2023-06-24T13:31:01;31.10;79.70
13328;DHT22;6733;51.044;3.746;2023-06-24T13:33:27;31.40;79.30
13328;DHT22;6733;51.044;3.746;2023-06-24T13:35:54;31.90;79.40
13328;DHT22;6733;51.044;3.746;2023-06-24T13:38:21;32.40;77.00
13328;DHT22;6733;51.044;3.746;2023-06-24T13:40:47;32.80;75.70
13328;DHT22;6733;51.044;3.746;2023-06-24T13:43:13;33.40;75.00
13328;DHT22;6733;51.044;3.746;2023-06-24T13:45:39;34.00;74.40
13328;DHT22;6733;51.044;3.746;2023-06-24T13:48:05;34.30;73.40
13328;DHT22;6733;51.044;3.746;2023-06-24T13:50:31;34.70;71.90
13328;DHT22;6733;51.044;3.746;2023-06-24T13:52:57;35.00;70.00
13328;DHT22;6733;51.044;3.746;2023-06-24T13:55:24;35.30;69.10
13328;DHT22;6733;51.044;3.746;2023-06-24T13:57:50;35.20;67.80
13328;DHT22;6733;51.044;3.746;2023-06-24T14:00:16;35.40;66.70
13328;DHT22;6733;51.044;3.746;2023-06-24T14:02:42;36.00;66.00
13328;DHT22;6733;51.044;3.746;2023-06-24T14:05:08;35.90;63.80
13328;DHT22;6733;51.044;3.746;2023-06-24T14:07:35;36.60;62.30
13328;DHT22;6733;51.044;3.746;2023-06-24T14:10:01;37.10;59.80
13328;DHT22;6733;51.044;3.746;2023-06-24T14:12:27;37.60;59.80
13328;DHT22;6733;51.044;3.746;2023-06-24T14:14:53;38.00;58.20
13328;DHT22;6733;51.044;3.746;2023-06-24T14:17:19;38.60;57.30
13328;DHT22;6733;51.044;3.746;2023-06-24T14:19:45;39.30;56.40
13328;DHT22;6733;51.044;3.746;2023-06-24T14:22:12;39.70;55.30
13328;DHT22;6733;51.044;3.746;2023-06-24T14:24:38;40.30;54.20
13328;DHT22;6733;51.044;3.746;2023-06-24T14:27:05;40.80;52.90
13328;DHT22;6733;51.044;3.746;2023-06-24T14:29:32;41.40;52.90
13328;DHT22;6733;51.044;3.746;2023-06-24T14:31:58;42.20;53.00
13328;DHT22;6733;51.044;3.746;2023-06-24T14:34:24;42.20;52.10
13328;DHT22;6733;51.044;3.746;2023-06-24T14:36:50;41.90;50.80
13328;DHT22;6733;51.044;3.746;2023-06-24T14:39:16;41.80;50.40
13328;DHT22;6733;51.044;3.746;2023-06-24T14:41:43;42.30;50.60
13328;DHT22;6733;51.044;3.746;2023-06-24T14:44:10;42.60;49.80
13328;DHT22;6733;51.044;3.746;2023-06-24T14:46:36;43.30;48.60
13328;DHT22;6733;51.044;3.746;2023-06-24T14:49:03;43.80;47.90
13328;DHT22;6733;51.044;3.746;2023-06-24T14:51:29;44.40;46.60
13328;DHT22;6733;51.044;3.746;2023-06-24T14:53:55;44.50;45.60
13328;DHT22;6733;51.044;3.746;2023-06-24T14:56:21;44.60;44.30
13328;DHT22;6733;51.044;3.746;2023-06-24T14:58:47;44.60;43.70
13328;DHT22;6733;51.044;3.746;2023-06-24T15:01:13;44.90;43.70
13328;DHT22;6733;51.044;3.746;2023-06-24T15:03:39;45.10;43.30
13328;DHT22;6733;51.044;3.746;2023-06-24T15:06:05;45.40;42.80
13328;DHT22;6733;51.044;3.746;2023-06-24T15:08:32;45.60;43.10
13328;DHT22;6733;51.044;3.746;2023-06-24T15:10:58;46.00;42.80
13328;DHT22;6733;51.044;3.746;2023-06-24T15:13:24;46.20;42.50
13328;DHT22;6733;51.044;3.746;2023-06-24T15:15:50;46.00;42.40
13328;DHT22;6733;51.044;3.746;2023-06-24T15:18:18;46.50;41.90
13328;DHT22;6733;51.044;3.746;2023-06-24T15:20:44;46.70;41.60
13328;DHT22;6733;51.044;3.746;2023-06-24T15:23:10;47.20;41.00
13328;DHT22;6733;51.044;3.746;2023-06-24T15:25:36;47.20;40.20
13328;DHT22;6733;51.044;3.746;2023-06-24T15:28:02;47.60;40.00
13328;DHT22;6733;51.044;3.746;2023-06-24T15:30:28;47.80;39.80
13328;DHT22;6733;51.044;3.746;2023-06-24T15:32:54;47.60;38.80
13328;DHT22;6733;51.044;3.746;2023-06-24T15:35:21;47.30;38.50
13328;DHT22;6733;51.044;3.746;2023-06-24T15:37:47;47.40;38.80
13328;DHT22;6733;51.044;3.746;2023-06-24T15:40:13;47.80;38.50
13328;DHT22;6733;51.044;3.746;2023-06-24T15:42:40;48.10;38.50
13328;DHT22;6733;51.044;3.746;2023-06-24T15:45:07;48.60;38.00
13328;DHT22;6733;51.044;3.746;2023-06-24T15:47:36;48.20;37.90
13328;DHT22;6733;51.044;3.746;2023-06-24T15:50:02;47.70;38.20
13328;DHT22;6733;51.044;3.746;2023-06-24T15:52:28;47.60;37.60
13328;DHT22;6733;51.044;3.746;2023-06-24T15:54:54;48.00;38.00
13328;DHT22;6733;51.044;3.746;2023-06-24T15:57:20;48.30;38.10
13328;DHT22;6733;51.044;3.746;2023-06-24T15:59:46;47.70;38.30
13328;DHT22;6733;51.044;3.746;2023-06-24T16:02:13;47.20;38.10
13328;DHT22;6733;51.044;3.746;2023-06-24T16:04:39;45.90;38.70
13328;DHT22;6733;51.044;3.746;2023-06-24T16:07:05;46.90;38.70